Albion, Idaho
Current Conditions -  °F | °C
As of 9:53 PM on Wednesday 22 Oct 2014 (Local Time) from KBYI Reporting Station
Clear Clear  
Wind Chill: 44°   Ceiling: Unl
Heat Index: 44°   Visibility: 10mi
Dew Point: 31°   Wind: 3mph
Humidity: 60%   Direction: 140°SE
Pressure: 30.09"   Gusts: NA
Location:  42.41°N, 113.58°W
Report Text: KBYI 230353Z AUTO 14003KT 10SM CLR 07/M01 A3009 RMK AO2 SLP186 T00671006
Loading
Personal Weather Stations






























Interactive Weather Map New forecast layout! Learn more

10-Day Weather Forecast

Advertisements
Track Severe Weather on mobile